createdAt,value
2023-09-09T00:01:57.321Z,78.29
2023-09-09T00:06:13.000Z,77.71
2023-09-09T00:10:15.115Z,77.77
2023-09-09T00:14:17.080Z,78.29
2023-09-09T00:18:19.460Z,78.51
2023-09-09T00:22:21.636Z,78.55
2023-09-09T00:26:23.604Z,78.91
2023-09-09T00:30:26.192Z,79.12
2023-09-09T00:34:28.222Z,79.23
2023-09-09T00:38:30.361Z,79.14
2023-09-09T00:42:32.485Z,79.25
2023-09-09T00:46:34.524Z,79.17
2023-09-09T00:50:36.998Z,79.54
2023-09-09T00:54:39.529Z,79.65
2023-09-09T00:58:41.715Z,79.40
2023-09-09T01:02:44.012Z,79.14
2023-09-09T01:06:46.657Z,79.10
2023-09-09T01:10:48.756Z,78.92
2023-09-09T01:14:50.783Z,78.85
2023-09-09T01:18:54.451Z,79.17
2023-09-09T01:22:56.651Z,79.80
2023-09-09T01:26:59.092Z,79.59
2023-09-09T01:31:01.337Z,79.39
2023-09-09T01:35:05.402Z,79.39
2023-09-09T01:39:08.482Z,80.09
2023-09-09T01:43:10.973Z,80.01
2023-09-09T01:47:14.518Z,79.76
2023-09-09T01:51:17.720Z,79.46
2023-09-09T01:55:19.798Z,79.53
2023-09-09T01:59:21.897Z,79.80
2023-09-09T02:03:26.133Z,79.88
2023-09-09T02:07:28.324Z,80.01
2023-09-09T02:11:30.290Z,80.07
2023-09-09T02:15:32.317Z,80.24
2023-09-09T02:19:34.410Z,80.12
2023-09-09T02:23:41.085Z,80.48
2023-09-09T02:27:43.271Z,80.90
2023-09-09T02:31:45.271Z,80.62
2023-09-09T02:35:48.643Z,80.84
2023-09-09T02:39:52.618Z,80.82
2023-09-09T02:43:54.886Z,80.90
2023-09-09T02:47:57.334Z,80.86
2023-09-09T02:52:00.081Z,81.16
2023-09-09T02:56:02.147Z,81.38
2023-09-09T03:00:06.715Z,81.04
2023-09-09T03:04:08.751Z,80.91
2023-09-09T03:08:11.273Z,80.99
2023-09-09T03:12:13.734Z,80.68
2023-09-09T03:16:17.241Z,80.99
2023-09-09T03:20:19.977Z,80.87
2023-09-09T03:24:22.132Z,81.06
2023-09-09T03:28:24.460Z,81.02
2023-09-09T03:32:26.896Z,81.23
2023-09-09T03:36:28.970Z,81.35
2023-09-09T03:40:31.047Z,81.49
2023-09-09T03:44:33.362Z,81.45
2023-09-09T03:48:35.791Z,81.48
2023-09-09T03:52:37.941Z,81.18
2023-09-09T03:56:40.160Z,81.43
2023-09-09T04:00:42.650Z,81.68
2023-09-09T04:04:45.825Z,82.24
2023-09-09T04:08:48.119Z,82.28
2023-09-09T04:12:50.664Z,81.94
2023-09-09T04:16:53.768Z,81.81
2023-09-09T04:20:56.217Z,81.87
2023-09-09T04:24:58.592Z,81.99
2023-09-09T04:29:00.867Z,82.07
2023-09-09T04:33:03.303Z,82.17
2023-09-09T04:37:06.170Z,81.98
2023-09-09T04:41:09.315Z,82.11
2023-09-09T04:45:11.315Z,82.31
2023-09-09T04:49:16.447Z,82.78
2023-09-09T04:53:23.952Z,83.21
2023-09-09T04:57:42.704Z,83.70
2023-09-09T05:01:45.443Z,84.25
2023-09-09T05:05:47.684Z,84.53
2023-09-09T05:09:49.962Z,84.85
2023-09-09T05:13:53.257Z,85.00
2023-09-09T05:17:55.402Z,84.84
2023-09-09T05:21:58.209Z,84.64
2023-09-09T05:26:00.374Z,84.73
2023-09-09T05:30:03.304Z,84.84
2023-09-09T05:34:05.629Z,84.99
2023-09-09T05:38:07.983Z,84.98
2023-09-09T05:42:11.077Z,84.96
2023-09-09T05:46:14.763Z,85.09
2023-09-09T05:50:17.169Z,84.87
2023-09-09T05:54:19.276Z,84.94
2023-09-09T05:58:21.442Z,85.14
2023-09-09T06:02:23.602Z,85.50
2023-09-09T06:06:30.059Z,85.73
2023-09-09T06:10:32.518Z,85.97
2023-09-09T06:14:34.601Z,85.89
2023-09-09T06:18:36.758Z,85.98
2023-09-09T06:22:39.356Z,86.12
2023-09-09T06:26:41.624Z,86.26
2023-09-09T06:30:44.403Z,86.36
2023-09-09T06:34:46.515Z,86.44
2023-09-09T06:38:49.256Z,86.60
2023-09-09T06:42:51.650Z,86.49
2023-09-09T06:46:53.664Z,86.56
2023-09-09T06:50:56.044Z,86.60
2023-09-09T06:54:58.119Z,86.76
2023-09-09T06:59:00.128Z,86.90
2023-09-09T07:03:02.316Z,86.90
2023-09-09T07:07:12.124Z,86.68
2023-09-09T07:11:15.089Z,86.50
2023-09-09T07:15:17.300Z,86.55
2023-09-09T07:19:19.269Z,86.12
2023-09-09T07:23:21.214Z,86.21
2023-09-09T07:27:23.178Z,85.78
2023-09-09T07:31:26.274Z,85.61
2023-09-09T07:35:28.241Z,85.13
2023-09-09T07:39:30.938Z,84.92
2023-09-09T07:43:33.017Z,84.13
2023-09-09T07:47:35.119Z,83.63
2023-09-09T07:51:37.196Z,83.17
2023-09-09T07:55:39.229Z,82.58
2023-09-09T07:59:41.345Z,81.61
2023-09-09T08:03:43.561Z,80.57
2023-09-09T08:07:45.862Z,80.38
2023-09-09T08:11:49.009Z,79.90
2023-09-09T08:15:52.116Z,79.21
2023-09-09T08:19:55.214Z,77.81
2023-09-09T08:24:01.311Z,77.04
2023-09-09T08:28:04.505Z,76.65
2023-09-09T08:32:07.260Z,76.06
2023-09-09T08:36:09.648Z,75.03
2023-09-09T08:40:12.523Z,74.22
2023-09-09T08:45:00.731Z,73.31
2023-09-09T08:49:06.107Z,72.42
2023-09-09T08:53:13.563Z,71.74
2023-09-09T08:57:17.113Z,70.97
2023-09-09T09:01:23.167Z,70.62
2023-09-09T09:05:25.850Z,70.35
2023-09-09T09:09:30.501Z,69.37
2023-09-09T09:13:33.997Z,67.45
2023-09-09T09:17:40.224Z,66.93
2023-09-09T09:21:44.090Z,66.56
2023-09-09T09:25:52.193Z,66.31
2023-09-09T09:29:54.243Z,64.78
2023-09-09T09:34:00.397Z,64.40
2023-09-09T09:38:08.768Z,63.34
2023-09-09T09:42:17.538Z,63.42
2023-09-09T09:46:22.297Z,62.89
2023-09-09T09:50:29.510Z,62.25
2023-09-09T09:54:34.267Z,62.23
2023-09-09T09:58:37.799Z,61.09
2023-09-09T10:02:44.356Z,60.44
2023-09-09T10:06:51.943Z,59.92
2023-09-09T10:11:06.776Z,59.32
2023-09-09T10:15:12.987Z,58.24
2023-09-09T10:19:18.867Z,58.06
2023-09-09T10:23:23.212Z,57.82
2023-09-09T10:27:28.282Z,56.60
2023-09-09T10:31:35.540Z,56.81
2023-09-09T10:35:45.597Z,56.43
2023-09-09T10:39:51.514Z,55.77
2023-09-09T10:43:54.671Z,55.24
2023-09-09T10:48:13.241Z,55.02
2023-09-09T10:52:33.230Z,54.09
2023-09-09T10:56:45.884Z,53.41
2023-09-09T11:00:50.122Z,53.18
2023-09-09T11:05:19.273Z,52.83
2023-09-09T11:09:28.938Z,52.03
2023-09-09T11:13:55.394Z,52.48
2023-09-09T11:17:59.843Z,52.19
2023-09-09T11:22:05.423Z,51.50
2023-09-09T11:26:13.940Z,50.66
2023-09-09T11:30:16.596Z,50.50
2023-09-09T11:34:35.918Z,50.31
2023-09-09T11:38:41.141Z,48.64
2023-09-09T11:42:52.811Z,48.06
2023-09-09T11:46:54.876Z,48.80
2023-09-09T11:51:15.439Z,48.75
2023-09-09T11:55:18.432Z,48.75
2023-09-09T11:59:22.200Z,48.58
2023-09-09T12:03:24.307Z,47.91
2023-09-09T12:07:30.316Z,47.98
2023-09-09T12:11:35.446Z,46.95
2023-09-09T12:15:45.627Z,46.68
2023-09-09T12:19:58.564Z,45.62
2023-09-09T12:24:01.580Z,45.25
2023-09-09T12:28:16.005Z,45.56
2023-09-09T12:32:19.318Z,45.59
2023-09-09T12:36:22.261Z,45.78
2023-09-09T12:40:26.237Z,46.00
2023-09-09T12:44:32.244Z,46.16
2023-09-09T12:48:53.426Z,46.05
2023-09-09T12:52:59.346Z,45.53
2023-09-09T12:57:01.388Z,45.57
2023-09-09T13:01:03.461Z,45.52
2023-09-09T13:05:05.880Z,44.15
2023-09-09T13:09:07.873Z,43.62
2023-09-09T13:13:10.476Z,43.28
2023-09-09T13:17:12.678Z,42.95
2023-09-09T13:21:14.908Z,42.97
2023-09-09T13:25:17.083Z,42.77
2023-09-09T13:29:19.157Z,42.93
2023-09-09T13:33:21.851Z,42.80
2023-09-09T13:37:23.918Z,42.74
2023-09-09T13:41:29.238Z,42.53
2023-09-09T13:45:32.016Z,42.89
2023-09-09T13:49:37.154Z,42.79
2023-09-09T13:53:39.509Z,42.71
2023-09-09T13:57:42.031Z,42.90
2023-09-09T14:01:44.028Z,42.86
2023-09-09T14:05:46.169Z,43.51
2023-09-09T14:09:48.556Z,43.73
2023-09-09T14:13:50.690Z,43.91
2023-09-09T14:17:52.810Z,44.11
2023-09-09T14:21:55.138Z,44.43
2023-09-09T14:25:57.180Z,44.16
2023-09-09T14:29:59.261Z,43.94
2023-09-09T14:34:01.503Z,43.95
2023-09-09T14:38:03.759Z,44.00
2023-09-09T14:42:06.130Z,44.18
2023-09-09T14:46:08.341Z,44.06
2023-09-09T14:50:11.358Z,44.14
2023-09-09T14:54:13.609Z,43.85
2023-09-09T14:58:15.744Z,43.97
2023-09-09T15:02:18.371Z,44.05
2023-09-09T15:06:22.224Z,44.16
2023-09-09T15:10:24.295Z,44.06
2023-09-09T15:14:26.403Z,44.26
2023-09-09T15:18:28.782Z,44.28
2023-09-09T15:22:30.896Z,44.49
2023-09-09T15:26:33.258Z,44.60
2023-09-09T15:30:35.424Z,44.92
2023-09-09T15:34:37.459Z,45.04
2023-09-09T15:38:41.794Z,45.21
2023-09-09T15:42:44.141Z,45.24
2023-09-09T15:46:46.540Z,45.29
2023-09-09T15:50:48.732Z,46.31
2023-09-09T15:54:50.902Z,47.26
2023-09-09T15:58:54.355Z,47.69
2023-09-09T16:02:56.515Z,48.35
2023-09-09T16:06:58.736Z,48.49
2023-09-09T16:11:02.173Z,48.51
2023-09-09T16:15:04.898Z,49.13
2023-09-09T16:19:07.939Z,49.47
2023-09-09T16:23:10.653Z,50.06
2023-09-09T16:27:13.968Z,50.59
2023-09-09T16:31:16.100Z,51.61
2023-09-09T16:35:18.180Z,52.01
2023-09-09T16:39:20.379Z,52.48
2023-09-09T16:43:22.637Z,53.12
2023-09-09T16:47:24.742Z,54.06
2023-09-09T16:51:26.744Z,54.82
2023-09-09T16:55:28.844Z,55.53
2023-09-09T16:59:41.160Z,55.93
2023-09-09T17:03:44.065Z,56.44
2023-09-09T17:07:46.205Z,57.09
2023-09-09T17:11:48.266Z,57.52
2023-09-09T17:15:50.627Z,58.10
2023-09-09T17:19:53.579Z,58.46
2023-09-09T17:23:56.394Z,59.02
2023-09-09T17:27:59.149Z,59.54
2023-09-09T17:32:04.044Z,60.06
2023-09-09T17:36:06.112Z,60.49
2023-09-09T17:40:09.362Z,61.07
2023-09-09T17:44:12.356Z,61.59
2023-09-09T17:48:14.613Z,62.13
2023-09-09T17:52:17.259Z,62.26
2023-09-09T17:56:22.941Z,62.64
2023-09-09T18:00:25.426Z,63.00
2023-09-09T18:04:27.637Z,63.33
2023-09-09T18:08:30.034Z,63.69
2023-09-09T18:12:32.158Z,63.81
2023-09-09T18:16:34.568Z,64.03
2023-09-09T18:20:36.758Z,64.41
2023-09-09T18:24:38.765Z,64.52
2023-09-09T18:28:41.094Z,65.09
2023-09-09T18:32:44.735Z,65.28
2023-09-09T18:36:46.929Z,65.79
2023-09-09T18:40:51.485Z,66.23
2023-09-09T18:44:54.033Z,66.25
2023-09-09T18:48:56.585Z,66.45
2023-09-09T18:52:58.714Z,67.17
2023-09-09T18:57:00.735Z,67.37
2023-09-09T19:01:03.166Z,67.52
2023-09-09T19:05:08.995Z,67.78
2023-09-09T19:09:15.908Z,68.43
2023-09-09T19:13:18.300Z,68.77
2023-09-09T19:17:22.342Z,69.04
2023-09-09T19:21:25.638Z,69.35
2023-09-09T19:25:27.822Z,69.88
2023-09-09T19:29:30.258Z,69.82
2023-09-09T19:33:32.825Z,69.95
2023-09-09T19:37:34.970Z,70.22
2023-09-09T19:41:38.336Z,70.44
2023-09-09T19:45:41.635Z,70.73
2023-09-09T19:49:43.823Z,71.04
2023-09-09T19:53:45.920Z,71.62
2023-09-09T19:57:48.111Z,72.08
2023-09-09T20:01:50.325Z,72.24
2023-09-09T20:05:53.452Z,71.95
2023-09-09T20:10:09.951Z,72.59
2023-09-09T20:14:13.804Z,72.61
2023-09-09T20:18:16.065Z,72.77
2023-09-09T20:22:20.979Z,72.75
2023-09-09T20:26:23.184Z,72.77
2023-09-09T20:30:26.327Z,72.64
2023-09-09T20:34:28.618Z,73.49
2023-09-09T20:38:31.425Z,74.17
2023-09-09T20:42:35.848Z,74.43
2023-09-09T20:46:40.140Z,74.57
2023-09-09T20:50:42.212Z,74.18
2023-09-09T20:54:45.104Z,74.73
2023-09-09T20:58:47.706Z,74.86
2023-09-09T21:02:53.557Z,75.05
2023-09-09T21:06:55.842Z,75.05
2023-09-09T21:10:58.739Z,74.79
2023-09-09T21:15:00.860Z,75.47
2023-09-09T21:19:03.167Z,76.04
2023-09-09T21:23:05.549Z,76.27
2023-09-09T21:27:08.178Z,76.33
2023-09-09T21:31:10.198Z,75.97
2023-09-09T21:35:17.279Z,76.30
2023-09-09T21:39:19.288Z,76.32
2023-09-09T21:43:21.270Z,76.15
2023-09-09T21:47:23.775Z,76.19
2023-09-09T21:51:26.044Z,76.40
2023-09-09T21:55:29.081Z,76.17
2023-09-09T21:59:31.121Z,76.49
2023-09-09T22:03:33.339Z,76.47
2023-09-09T22:07:35.449Z,76.06
2023-09-09T22:11:37.528Z,76.31
2023-09-09T22:15:41.499Z,76.46
2023-09-09T22:19:43.883Z,76.19
2023-09-09T22:23:46.148Z,76.29
2023-09-09T22:27:48.560Z,76.74
2023-09-09T22:31:50.863Z,76.91
2023-09-09T22:35:53.043Z,77.16
2023-09-09T22:39:55.066Z,77.42
2023-09-09T22:43:57.199Z,77.62
2023-09-09T22:47:59.238Z,77.99
2023-09-09T22:52:02.417Z,77.85
2023-09-09T22:56:04.641Z,77.99
2023-09-09T23:00:07.407Z,77.78
2023-09-09T23:04:10.078Z,77.88
2023-09-09T23:08:12.558Z,77.99
2023-09-09T23:12:14.604Z,78.26
2023-09-09T23:16:17.187Z,78.40
2023-09-09T23:20:20.465Z,78.45
2023-09-09T23:24:22.828Z,78.51
2023-09-09T23:28:26.520Z,78.57
2023-09-09T23:32:28.609Z,78.59
2023-09-09T23:36:31.395Z,78.53
2023-09-09T23:40:33.486Z,78.45
2023-09-09T23:44:35.582Z,78.63
2023-09-09T23:48:38.001Z,78.31
2023-09-09T23:52:40.919Z,78.56
2023-09-09T23:56:42.998Z,78.59
